createdAt,value
2023-02-08T00:01:19.426Z,102181.59
2023-02-08T00:03:47.372Z,102182.50
2023-02-08T00:06:15.330Z,102178.13
2023-02-08T00:08:43.008Z,102171.19
2023-02-08T00:11:11.284Z,102175.53
2023-02-08T00:13:41.649Z,102172.91
2023-02-08T00:16:09.694Z,102178.13
2023-02-08T00:18:37.309Z,102177.22
2023-02-08T00:21:04.967Z,102170.28
2023-02-08T00:23:32.664Z,102172.88
2023-02-08T00:26:00.886Z,102169.38
2023-02-08T00:28:28.905Z,102171.97
2023-02-08T00:30:56.682Z,102174.56
2023-02-08T00:33:24.317Z,102168.47
2023-02-08T00:35:51.971Z,102173.69
2023-02-08T00:38:20.131Z,102174.53
2023-02-08T00:40:47.740Z,102174.53
2023-02-08T00:43:15.367Z,102170.22
2023-02-08T00:45:42.984Z,102171.06
2023-02-08T00:48:10.586Z,102166.69
2023-02-08T00:50:40.115Z,102157.09
2023-02-08T00:53:07.852Z,102161.41
2023-02-08T00:55:35.474Z,102161.41
2023-02-08T00:58:03.112Z,102163.09
2023-02-08T01:00:30.739Z,102154.38
2023-02-08T01:02:58.327Z,102150.91
2023-02-08T01:05:25.975Z,102156.06
2023-02-08T01:07:53.566Z,102152.59
2023-02-08T01:10:21.167Z,102155.19
2023-02-08T01:12:49.106Z,102155.19
2023-02-08T01:15:16.708Z,102149.97
2023-02-08T01:17:44.267Z,102149.97
2023-02-08T01:20:11.903Z,102142.16
2023-02-08T01:22:39.524Z,102141.28
2023-02-08T01:25:07.167Z,102145.63
2023-02-08T01:27:35.140Z,102144.75
2023-02-08T01:30:02.775Z,102150.81
2023-02-08T01:32:30.365Z,102148.22
2023-02-08T01:34:57.989Z,102141.22
2023-02-08T01:37:25.616Z,102145.56
2023-02-08T01:39:53.828Z,102140.34
2023-02-08T01:42:21.455Z,102146.44
2023-02-08T01:44:49.041Z,102129.06
2023-02-08T01:47:16.642Z,102137.75
2023-02-08T01:49:44.250Z,102135.13
2023-02-08T01:52:12.142Z,102132.50
2023-02-08T01:54:40.752Z,102132.50
2023-02-08T01:57:08.663Z,102129.91
2023-02-08T01:59:36.267Z,102122.09
2023-02-08T02:02:03.854Z,102132.50
2023-02-08T02:04:32.035Z,102122.91
2023-02-08T02:06:59.681Z,102122.91
2023-02-08T02:09:27.256Z,102127.22
2023-02-08T02:11:54.861Z,102126.34
2023-02-08T02:14:22.410Z,102122.88
2023-02-08T02:16:50.187Z,102124.56
2023-02-08T02:19:18.159Z,102131.53
2023-02-08T02:21:45.714Z,102121.09
2023-02-08T02:24:13.269Z,102121.97
2023-02-08T02:26:40.916Z,102115.91
2023-02-08T02:29:08.781Z,102115.06
2023-02-08T02:31:36.950Z,102129.78
2023-02-08T02:34:04.546Z,102122.78
2023-02-08T02:36:32.731Z,102124.50
2023-02-08T02:39:02.814Z,102119.25
2023-02-08T02:41:50.782Z,102117.47
2023-02-08T02:44:18.550Z,102122.63
2023-02-08T02:46:46.159Z,102122.59
2023-02-08T02:49:13.770Z,102110.41
2023-02-08T02:51:41.392Z,102115.63
2023-02-08T02:54:08.955Z,102119.13
2023-02-08T02:56:36.719Z,102118.25
2023-02-08T02:59:04.292Z,102115.66
2023-02-08T03:01:31.897Z,102115.69
2023-02-08T03:03:59.601Z,102117.44
2023-02-08T03:06:27.237Z,102110.50
2023-02-08T03:08:55.673Z,102105.28
2023-02-08T03:11:23.239Z,102107.91
2023-02-08T03:13:50.790Z,102110.53
2023-02-08T03:16:18.439Z,102102.72
2023-02-08T03:18:46.263Z,102100.13
2023-02-08T03:21:13.843Z,102102.72
2023-02-08T03:23:41.716Z,102097.53
2023-02-08T03:26:09.379Z,102103.59
2023-02-08T03:28:36.964Z,102101.81
2023-02-08T03:31:04.796Z,102095.72
2023-02-08T03:33:32.644Z,102102.66
2023-02-08T03:36:00.231Z,102101.78
2023-02-08T03:38:27.828Z,102111.34
2023-02-08T03:40:55.438Z,102105.22
2023-02-08T03:43:23.389Z,102105.19
2023-02-08T03:45:52.176Z,102102.53
2023-02-08T03:48:19.827Z,102100.81
2023-02-08T03:50:47.456Z,102103.38
2023-02-08T03:53:15.047Z,102100.72
2023-02-08T03:55:43.020Z,102105.94
2023-02-08T03:58:10.589Z,102102.50
2023-02-08T04:00:38.194Z,102107.72
2023-02-08T04:03:05.892Z,102106.84
2023-02-08T04:05:33.455Z,102105.97
2023-02-08T04:08:01.708Z,102101.59
2023-02-08T04:10:29.525Z,102107.66
2023-02-08T04:12:57.121Z,102103.31
2023-02-08T04:15:27.421Z,102105.06
2023-02-08T04:17:55.018Z,102099.00
2023-02-08T04:20:22.965Z,102097.25
2023-02-08T04:22:50.707Z,102091.19
2023-02-08T04:25:18.888Z,102098.09
2023-02-08T04:27:46.458Z,102101.53
2023-02-08T04:30:14.337Z,102098.94
2023-02-08T04:32:42.305Z,102103.31
2023-02-08T04:35:09.899Z,102104.97
2023-02-08T04:37:37.488Z,102111.00
2023-02-08T04:40:05.108Z,102107.47
2023-02-08T04:42:32.689Z,102108.34
2023-02-08T04:45:00.734Z,102106.56
2023-02-08T04:47:28.411Z,102110.00
2023-02-08T04:49:56.041Z,102115.13
2023-02-08T04:52:23.935Z,102113.34
2023-02-08T04:54:51.586Z,102116.78
2023-02-08T04:57:19.171Z,102116.72
2023-02-08T04:59:46.933Z,102120.16
2023-02-08T05:02:14.548Z,102113.19
2023-02-08T05:04:42.201Z,102113.22
2023-02-08T05:07:09.835Z,102120.16
2023-02-08T05:09:37.778Z,102123.63
2023-02-08T05:12:05.409Z,102121.03
2023-02-08T05:14:33.295Z,102124.47
2023-02-08T05:17:00.909Z,102124.47
2023-02-08T05:19:28.582Z,102119.28
2023-02-08T05:21:56.592Z,102115.75
2023-02-08T05:24:24.412Z,102114.00
2023-02-08T05:26:52.268Z,102120.94
2023-02-08T05:29:19.855Z,102127.88
2023-02-08T05:31:47.667Z,102126.16
2023-02-08T05:34:15.739Z,102123.53
2023-02-08T05:36:44.708Z,102115.75
2023-02-08T05:39:12.401Z,102131.44
2023-02-08T05:41:40.057Z,102126.22
2023-02-08T05:44:07.648Z,102135.78
2023-02-08T05:46:38.084Z,102121.03
2023-02-08T05:49:06.149Z,102132.34
2023-02-08T05:51:33.883Z,102131.50
2023-02-08T05:54:01.619Z,102131.50
2023-02-08T05:56:29.842Z,102134.94
2023-02-08T05:58:57.784Z,102127.13
2023-02-08T06:01:25.749Z,102130.56
2023-02-08T06:03:54.212Z,102136.63
2023-02-08T06:06:21.842Z,102137.41
2023-02-08T06:08:49.580Z,102121.75
2023-02-08T06:11:17.579Z,102129.53
2023-02-08T06:13:46.121Z,102128.66
2023-02-08T06:16:13.829Z,102130.41
2023-02-08T06:18:41.496Z,102132.16
2023-02-08T06:21:09.817Z,102133.03
2023-02-08T06:23:38.322Z,102135.63
2023-02-08T06:26:06.146Z,102133.88
2023-02-08T06:28:33.776Z,102133.91
2023-02-08T06:31:01.479Z,102140.94
2023-02-08T06:33:29.412Z,102129.69
2023-02-08T06:35:57.541Z,102127.97
2023-02-08T06:38:25.438Z,102128.00
2023-02-08T06:40:53.113Z,102120.22
2023-02-08T06:43:21.236Z,102122.81
2023-02-08T06:45:48.959Z,102128.88
2023-02-08T06:48:16.972Z,102115.88
2023-02-08T06:50:44.824Z,102110.66
2023-02-08T06:53:12.545Z,102104.63
2023-02-08T06:55:40.138Z,102101.19
2023-02-08T06:58:07.816Z,102101.25
2023-02-08T07:00:35.688Z,102106.50
2023-02-08T07:03:03.401Z,102107.41
2023-02-08T07:05:31.013Z,102102.22
2023-02-08T07:07:58.675Z,102109.16
2023-02-08T07:10:26.341Z,102109.13
2023-02-08T07:12:54.383Z,102117.81
2023-02-08T07:15:22.241Z,102103.91
2023-02-08T07:17:49.844Z,102103.97
2023-02-08T07:20:17.466Z,102101.41
2023-02-08T07:22:45.219Z,102102.25
2023-02-08T07:25:13.200Z,102094.47
2023-02-08T07:27:42.087Z,102093.63
2023-02-08T07:30:09.830Z,102088.38
2023-02-08T07:32:37.486Z,102097.94
2023-02-08T07:35:05.572Z,102091.00
2023-02-08T07:37:33.731Z,102093.63
2023-02-08T07:40:01.662Z,102094.50
2023-02-08T07:42:29.310Z,102093.66
2023-02-08T07:44:57.185Z,102088.50
2023-02-08T07:47:24.860Z,102086.81
2023-02-08T07:49:52.857Z,102091.19
2023-02-08T07:52:20.731Z,102092.09
2023-02-08T07:54:48.492Z,102089.56
2023-02-08T07:57:21.413Z,102092.22
2023-02-08T07:59:49.212Z,102087.97
2023-02-08T08:02:17.386Z,102089.75
2023-02-08T08:04:45.482Z,102087.19
2023-02-08T08:07:13.142Z,102081.19
2023-02-08T08:09:40.890Z,102086.44
2023-02-08T08:12:09.261Z,102085.63
2023-02-08T08:14:37.390Z,102084.78
2023-02-08T08:17:05.026Z,102091.84
2023-02-08T08:19:32.903Z,102086.69
2023-02-08T08:22:00.615Z,102091.09
2023-02-08T08:24:28.300Z,102087.69
2023-02-08T08:26:56.264Z,102091.28
2023-02-08T08:29:24.293Z,102084.44
2023-02-08T08:31:52.132Z,102087.97
2023-02-08T08:34:20.610Z,102088.03
2023-02-08T08:36:48.261Z,102091.50
2023-02-08T08:39:16.371Z,102088.00
2023-02-08T08:41:44.370Z,102080.97
2023-02-08T08:44:12.115Z,102076.56
2023-02-08T08:46:40.303Z,102070.38
2023-02-08T08:49:08.358Z,102072.13
2023-02-08T08:51:36.824Z,102072.94
2023-02-08T08:54:04.907Z,102066.78
2023-02-08T08:56:33.180Z,102066.75
2023-02-08T08:59:00.991Z,102069.34
2023-02-08T09:01:28.909Z,102066.63
2023-02-08T09:03:57.115Z,102067.44
2023-02-08T09:06:25.582Z,102062.13
2023-02-08T09:08:53.580Z,102064.75
2023-02-08T09:11:21.562Z,102062.97
2023-02-08T09:13:53.121Z,102063.81
2023-02-08T09:16:21.580Z,102068.19
2023-02-08T09:18:50.907Z,102055.94
2023-02-08T09:21:18.722Z,102069.06
2023-02-08T09:23:47.820Z,102062.94
2023-02-08T09:26:15.681Z,102062.03
2023-02-08T09:28:43.624Z,102063.75
2023-02-08T09:31:11.708Z,102056.72
2023-02-08T09:33:39.798Z,102055.81
2023-02-08T09:36:07.939Z,102066.28
2023-02-08T09:38:35.967Z,102065.31
2023-02-08T09:41:04.475Z,102060.88
2023-02-08T09:43:32.565Z,102066.91
2023-02-08T09:46:00.747Z,102061.63
2023-02-08T09:48:28.652Z,102047.53
2023-02-08T09:50:56.422Z,102049.19
2023-02-08T09:53:24.699Z,102043.88
2023-02-08T09:55:53.093Z,102045.50
2023-02-08T09:58:20.944Z,102043.59
2023-02-08T10:00:51.176Z,102042.56
2023-02-08T10:03:19.135Z,102036.25
2023-02-08T10:05:47.421Z,102038.72
2023-02-08T10:08:15.828Z,102041.09
2023-02-08T10:10:43.943Z,102041.69
2023-02-08T10:13:14.100Z,102035.16
2023-02-08T10:15:42.113Z,102036.28
2023-02-08T10:18:10.390Z,102025.59
2023-02-08T10:20:38.228Z,102029.34
2023-02-08T10:23:06.529Z,102011.75
2023-02-08T10:25:34.345Z,102011.94
2023-02-08T10:28:02.219Z,102004.88
2023-02-08T10:30:30.729Z,101997.59
2023-02-08T10:32:58.973Z,101996.63
2023-02-08T10:35:27.076Z,101986.03
2023-02-08T10:37:56.871Z,101982.13
2023-02-08T10:40:24.625Z,101981.63
2023-02-08T10:42:53.081Z,101973.00
2023-02-08T10:45:24.726Z,101976.88
2023-02-08T10:47:52.960Z,101973.47
2023-02-08T10:50:20.853Z,101969.94
2023-02-08T10:52:49.448Z,101969.22
2023-02-08T10:55:17.320Z,101974.47
2023-02-08T10:57:46.249Z,101965.75
2023-02-08T11:00:14.218Z,101964.78
2023-02-08T11:02:41.994Z,101962.66
2023-02-08T11:05:09.970Z,101960.66
2023-02-08T11:07:38.632Z,101952.97
2023-02-08T11:10:06.666Z,101956.06
2023-02-08T11:12:34.602Z,101949.78
2023-02-08T11:15:02.548Z,101941.34
2023-02-08T11:17:30.373Z,101942.16
2023-02-08T11:19:58.516Z,101942.84
2023-02-08T11:22:26.604Z,101936.72
2023-02-08T11:24:54.389Z,101933.19
2023-02-08T11:27:22.401Z,101926.38
2023-02-08T11:29:50.706Z,101923.78
2023-02-08T11:32:19.144Z,101911.47
2023-02-08T11:34:47.547Z,101910.47
2023-02-08T11:37:15.366Z,101901.47
2023-02-08T11:39:43.188Z,101898.34
2023-02-08T11:42:11.120Z,101901.91
2023-02-08T11:44:39.620Z,101901.34
2023-02-08T11:47:07.751Z,101907.31
2023-02-08T11:49:35.709Z,101910.59
2023-02-08T11:52:04.049Z,101908.22
2023-02-08T11:54:32.104Z,101925.25
2023-02-08T11:57:00.359Z,101919.13
2023-02-08T11:59:29.515Z,101922.94
2023-02-08T12:01:57.622Z,101924.38
2023-02-08T12:04:25.392Z,101915.81
2023-02-08T12:06:53.538Z,101909.16
2023-02-08T12:09:21.731Z,101902.06
2023-02-08T12:11:50.261Z,101896.50
2023-02-08T12:14:18.578Z,101899.13
2023-02-08T12:16:46.369Z,101893.94
2023-02-08T12:19:14.393Z,101893.09
2023-02-08T12:21:42.842Z,101893.22
2023-02-08T12:24:11.039Z,101891.28
2023-02-08T12:26:38.769Z,101887.19
2023-02-08T12:29:06.807Z,101889.22
2023-02-08T12:31:34.605Z,101888.38
2023-02-08T12:34:03.146Z,101881.53
2023-02-08T12:36:32.735Z,101875.13
2023-02-08T12:39:19.918Z,101879.09
2023-02-08T12:41:48.788Z,101868.69
2023-02-08T12:44:16.968Z,101871.38
2023-02-08T12:46:45.409Z,101867.31
2023-02-08T12:49:13.433Z,101869.13
2023-02-08T12:51:41.363Z,101858.06
2023-02-08T12:54:10.129Z,101868.41
2023-02-08T12:56:38.957Z,101857.44
2023-02-08T12:59:13.554Z,101858.09
2023-02-08T13:01:42.112Z,101855.28
2023-02-08T13:04:10.002Z,101855.75
2023-02-08T13:06:38.283Z,101853.41
2023-02-08T13:09:06.838Z,101846.06
2023-02-08T13:11:35.703Z,101839.34
2023-02-08T13:14:03.501Z,101846.22
2023-02-08T13:16:31.429Z,101836.25
2023-02-08T13:18:59.302Z,101832.63
2023-02-08T13:21:27.662Z,101825.03
2023-02-08T13:23:55.676Z,101822.53
2023-02-08T13:26:26.501Z,101826.94
2023-02-08T13:28:54.578Z,101811.75
2023-02-08T13:31:22.879Z,101811.84
2023-02-08T13:34:01.392Z,101815.28
2023-02-08T13:36:30.313Z,101800.25
2023-02-08T13:38:58.220Z,101796.75
2023-02-08T13:41:26.162Z,101798.38
2023-02-08T13:43:54.723Z,101802.84
2023-02-08T13:46:22.637Z,101800.38
2023-02-08T13:48:50.929Z,101790.16
2023-02-08T13:51:18.773Z,101787.56
2023-02-08T13:53:46.744Z,101777.47
2023-02-08T13:56:14.992Z,101771.72
2023-02-08T13:58:43.356Z,101764.94
2023-02-08T14:01:11.281Z,101774.94
2023-02-08T14:03:39.189Z,101768.25
2023-02-08T14:06:07.212Z,101776.63
2023-02-08T14:08:35.773Z,101778.22
2023-02-08T14:11:03.786Z,101769.41
2023-02-08T14:13:32.054Z,101770.88
2023-02-08T14:15:59.894Z,101767.94
2023-02-08T14:18:27.740Z,101764.25
2023-02-08T14:20:56.378Z,101770.94
2023-02-08T14:23:24.271Z,101768.22
2023-02-08T14:25:52.383Z,101765.19
2023-02-08T14:28:20.377Z,101761.22
2023-02-08T14:30:48.425Z,101758.03
2023-02-08T14:33:17.408Z,101749.13
2023-02-08T14:35:45.651Z,101742.69
2023-02-08T14:38:13.769Z,101741.47
2023-02-08T14:40:41.761Z,101739.59
2023-02-08T14:43:10.204Z,101739.13
2023-02-08T14:45:38.410Z,101732.31
2023-02-08T14:48:07.801Z,101730.81
2023-02-08T14:50:36.096Z,101717.63
2023-02-08T14:53:04.134Z,101728.13
2023-02-08T14:55:31.992Z,101722.38
2023-02-08T14:58:01.070Z,101722.34
2023-02-08T15:00:31.229Z,101720.31
2023-02-08T15:02:59.153Z,101722.59
2023-02-08T15:05:27.162Z,101714.44
2023-02-08T15:07:55.109Z,101710.19
2023-02-08T15:10:23.512Z,101704.16
2023-02-08T15:12:51.539Z,101709.69
2023-02-08T15:15:19.501Z,101714.31
2023-02-08T15:17:47.898Z,101713.06
2023-02-08T15:20:15.799Z,101713.13
2023-02-08T15:22:43.949Z,101719.97
2023-02-08T15:25:11.879Z,101719.91
2023-02-08T15:27:41.657Z,101717.34
2023-02-08T15:30:09.493Z,101723.81
2023-02-08T15:32:37.956Z,101731.50
2023-02-08T15:35:06.096Z,101725.47
2023-02-08T15:37:34.084Z,101727.91
2023-02-08T15:40:02.953Z,101731.94
2023-02-08T15:42:31.046Z,101735.78
2023-02-08T15:45:00.892Z,101739.44
2023-02-08T15:47:29.272Z,101732.50
2023-02-08T15:49:58.163Z,101730.75
2023-02-08T15:52:26.610Z,101728.88
2023-02-08T15:54:54.574Z,101728.66
2023-02-08T15:57:22.563Z,101727.63
2023-02-08T15:59:50.377Z,101727.41
2023-02-08T16:02:19.633Z,101717.50
2023-02-08T16:04:47.889Z,101717.25
2023-02-08T16:07:15.783Z,101713.31
2023-02-08T16:09:43.657Z,101710.25
2023-02-08T16:12:12.578Z,101708.88
2023-02-08T16:14:51.917Z,101704.84
2023-02-08T16:17:20.771Z,101706.97
2023-02-08T16:19:48.546Z,101703.97
2023-02-08T16:22:17.020Z,101704.41
2023-02-08T16:24:47.278Z,101701.28
2023-02-08T16:27:15.104Z,101701.78
2023-02-08T16:29:43.540Z,101705.72
2023-02-08T16:32:13.801Z,101704.34
2023-02-08T16:34:42.240Z,101695.81
2023-02-08T16:37:10.010Z,101698.59
2023-02-08T16:39:39.523Z,101705.03
2023-02-08T16:42:16.109Z,101692.09
2023-02-08T16:44:44.629Z,101696.72
2023-02-08T16:47:12.503Z,101688.13
2023-02-08T16:49:40.308Z,101691.88
2023-02-08T16:52:08.404Z,101698.19
2023-02-08T16:54:36.276Z,101698.41
2023-02-08T16:57:04.498Z,101696.00
2023-02-08T16:59:32.658Z,101687.44
2023-02-08T17:02:00.489Z,101683.22
2023-02-08T17:04:30.893Z,101685.25
2023-02-08T17:06:59.009Z,101684.53
2023-02-08T17:09:27.219Z,101673.31
2023-02-08T17:11:55.121Z,101669.13
2023-02-08T17:14:23.417Z,101664.06
2023-02-08T17:16:51.551Z,101665.13
2023-02-08T17:19:19.447Z,101666.16
2023-02-08T17:21:47.515Z,101648.78
2023-02-08T17:24:15.325Z,101660.28
2023-02-08T17:26:43.292Z,101661.31
2023-02-08T17:29:11.498Z,101651.84
2023-02-08T17:31:39.346Z,101651.09
2023-02-08T17:34:07.519Z,101644.25
2023-02-08T17:36:35.812Z,101652.31
2023-02-08T17:39:03.890Z,101656.94
2023-02-08T17:41:32.329Z,101656.31
2023-02-08T17:44:00.288Z,101652.97
2023-02-08T17:46:28.156Z,101650.50
2023-02-08T17:48:56.132Z,101645.41
2023-02-08T17:51:24.144Z,101646.34
2023-02-08T17:53:52.080Z,101642.91
2023-02-08T17:56:20.749Z,101640.31
2023-02-08T17:58:51.428Z,101641.25
2023-02-08T18:01:21.537Z,101634.31
2023-02-08T18:03:49.563Z,101634.44
2023-02-08T18:06:17.721Z,101642.38
2023-02-08T18:08:45.477Z,101635.50
2023-02-08T18:11:16.234Z,101634.69
2023-02-08T18:13:44.184Z,101633.91
2023-02-08T18:16:12.228Z,101634.81
2023-02-08T18:18:40.264Z,101628.81
2023-02-08T18:21:08.428Z,101637.69
2023-02-08T18:23:36.555Z,101632.53
2023-02-08T18:26:04.494Z,101637.91
2023-02-08T18:28:32.382Z,101640.63
2023-02-08T18:31:00.394Z,101630.25
2023-02-08T18:33:28.344Z,101632.00
2023-02-08T18:35:56.687Z,101638.13
2023-02-08T18:38:24.414Z,101635.53
2023-02-08T18:40:52.945Z,101632.94
2023-02-08T18:43:21.662Z,101633.91
2023-02-08T18:45:51.006Z,101628.72
2023-02-08T18:48:19.767Z,101627.03
2023-02-08T18:50:47.645Z,101625.31
2023-02-08T18:53:15.488Z,101614.91
2023-02-08T18:55:43.713Z,101612.28
2023-02-08T18:58:11.681Z,101612.28
2023-02-08T19:00:40.918Z,101611.31
2023-02-08T19:03:10.326Z,101613.88
2023-02-08T19:05:38.176Z,101608.59
2023-02-08T19:08:06.254Z,101605.16
2023-02-08T19:10:34.163Z,101598.19
2023-02-08T19:13:02.072Z,101593.84
2023-02-08T19:15:30.005Z,101598.22
2023-02-08T19:17:59.417Z,101594.78
2023-02-08T19:20:27.743Z,101593.00
2023-02-08T19:22:55.545Z,101594.78
2023-02-08T19:25:24.613Z,101592.16
2023-02-08T19:27:52.857Z,101589.53
2023-02-08T19:30:20.825Z,101577.28
2023-02-08T19:32:48.997Z,101584.28
2023-02-08T19:35:16.915Z,101570.22
2023-02-08T19:37:47.743Z,101573.72
2023-02-08T19:40:17.215Z,101572.81
2023-02-08T19:42:45.180Z,101574.56
2023-02-08T19:45:13.212Z,101576.28
2023-02-08T19:47:51.107Z,101567.59
2023-02-08T19:50:20.489Z,101575.56
2023-02-08T19:52:48.400Z,101567.78
2023-02-08T19:55:16.321Z,101567.81
2023-02-08T19:57:44.221Z,101571.31
2023-02-08T20:00:22.909Z,101561.69
2023-02-08T20:02:52.077Z,101563.47
2023-02-08T20:05:20.163Z,101568.75
2023-02-08T20:07:48.020Z,101560.91
2023-02-08T20:10:15.923Z,101560.03
2023-02-08T20:12:43.933Z,101563.53
2023-02-08T20:15:12.387Z,101560.06
2023-02-08T20:17:41.378Z,101560.97
2023-02-08T20:20:09.371Z,101564.53
2023-02-08T20:22:37.249Z,101568.94
2023-02-08T20:25:05.506Z,101569.81
2023-02-08T20:27:33.557Z,101568.16
2023-02-08T20:30:02.895Z,101569.97
2023-02-08T20:32:30.995Z,101569.97
2023-02-08T20:35:00.040Z,101573.38
2023-02-08T20:37:27.982Z,101581.91
2023-02-08T20:39:56.686Z,101568.75
2023-02-08T20:42:24.717Z,101576.56
2023-02-08T20:44:53.669Z,101581.81
2023-02-08T20:47:22.063Z,101581.84
2023-02-08T20:49:50.077Z,101578.41
2023-02-08T20:52:19.465Z,101584.53
2023-02-08T20:54:48.076Z,101574.94
2023-02-08T20:57:16.128Z,101575.84
2023-02-08T20:59:43.973Z,101568.88
2023-02-08T21:02:11.857Z,101577.63
2023-02-08T21:04:40.104Z,101581.91
2023-02-08T21:07:08.205Z,101588.66
2023-02-08T21:09:36.068Z,101585.81
2023-02-08T21:12:04.016Z,101586.59
2023-02-08T21:14:32.149Z,101593.41
2023-02-08T21:17:00.462Z,101591.63
2023-02-08T21:19:28.934Z,101586.44
2023-02-08T21:21:56.809Z,101590.03
2023-02-08T21:24:24.901Z,101592.78
2023-02-08T21:26:52.946Z,101591.09
2023-02-08T21:29:21.545Z,101592.00
2023-02-08T21:31:51.987Z,101601.59
2023-02-08T21:34:19.920Z,101605.88
2023-02-08T21:36:48.224Z,101595.25
2023-02-08T21:39:16.031Z,101589.00
2023-02-08T21:41:44.353Z,101580.94
2023-02-08T21:44:12.117Z,101571.22
2023-02-08T21:46:40.044Z,101579.91
2023-02-08T21:49:25.422Z,101576.38
2023-02-08T21:52:10.487Z,101580.72
2023-02-08T21:54:45.880Z,101576.44
2023-02-08T21:57:14.099Z,101573.97
2023-02-08T21:59:41.861Z,101578.50
2023-02-08T22:02:09.723Z,101566.38
2023-02-08T22:04:37.952Z,101565.59
2023-02-08T22:07:05.991Z,101561.09
2023-02-08T22:09:36.174Z,101562.72
2023-02-08T22:12:03.975Z,101561.84
2023-02-08T22:14:31.701Z,101561.03
2023-02-08T22:17:00.049Z,101561.91
2023-02-08T22:19:28.742Z,101561.06
2023-02-08T22:21:56.477Z,101566.25
2023-02-08T22:24:24.279Z,101556.72
2023-02-08T22:26:51.956Z,101557.63
2023-02-08T22:29:20.267Z,101556.72
2023-02-08T22:31:48.320Z,101547.13
2023-02-08T22:34:16.150Z,101554.19
2023-02-08T22:36:43.886Z,101554.25
2023-02-08T22:39:11.710Z,101557.78
2023-02-08T22:41:40.013Z,101559.63
2023-02-08T22:44:07.785Z,101560.56
2023-02-08T22:46:35.638Z,101565.03
2023-02-08T22:49:03.396Z,101566.75
2023-02-08T22:51:31.076Z,101573.81
2023-02-08T22:53:58.917Z,101567.78
2023-02-08T22:56:27.126Z,101566.16
2023-02-08T22:58:54.838Z,101567.09
2023-02-08T23:01:22.684Z,101567.97
2023-02-08T23:03:50.480Z,101563.69
2023-02-08T23:06:18.546Z,101568.09
2023-02-08T23:08:46.247Z,101567.25
2023-02-08T23:11:13.894Z,101565.56
2023-02-08T23:13:41.491Z,101565.63
2023-02-08T23:16:09.236Z,101561.31
2023-02-08T23:18:37.257Z,101556.13
2023-02-08T23:21:05.160Z,101557.97
2023-02-08T23:23:32.882Z,101555.38
2023-02-08T23:26:00.852Z,101545.81
2023-02-08T23:28:28.609Z,101550.19
2023-02-08T23:30:56.748Z,101548.47
2023-02-08T23:33:24.461Z,101544.97
2023-02-08T23:35:52.123Z,101543.19
2023-02-08T23:38:19.864Z,101536.19
2023-02-08T23:40:47.594Z,101538.81
2023-02-08T23:43:15.362Z,101550.13
2023-02-08T23:45:43.243Z,101543.16
2023-02-08T23:48:11.328Z,101544.94
2023-02-08T23:50:39.146Z,101536.19
2023-02-08T23:53:06.984Z,101537.97
2023-02-08T23:55:35.014Z,101531.91
2023-02-08T23:58:02.986Z,101544.13
